createdAt,value
2018-07-02T00:00:38.563Z,37.94
2018-07-02T00:03:06.322Z,37.78
2018-07-02T00:05:39.819Z,37.61
2018-07-02T00:08:07.546Z,38.11
2018-07-02T00:10:35.306Z,38.43
2018-07-02T00:13:03.013Z,37.93
2018-07-02T00:15:30.708Z,38.50
2018-07-02T00:17:58.418Z,38.42
2018-07-02T00:20:26.123Z,38.27
2018-07-02T00:22:53.798Z,38.59
2018-07-02T00:25:21.503Z,38.28
2018-07-02T00:27:49.219Z,38.81
2018-07-02T00:30:16.915Z,38.44
2018-07-02T00:32:44.634Z,38.63
2018-07-02T00:35:12.319Z,38.21
2018-07-02T00:37:40.011Z,38.47
2018-07-02T00:40:07.737Z,38.43
2018-07-02T00:42:35.453Z,38.38
2018-07-02T00:45:03.198Z,38.15
2018-07-02T00:47:30.910Z,38.24
2018-07-02T00:49:58.754Z,38.43
2018-07-02T00:52:26.483Z,38.56
2018-07-02T00:54:54.371Z,38.29
2018-07-02T00:57:22.066Z,38.28
2018-07-02T00:59:49.737Z,38.45
2018-07-02T01:02:17.461Z,38.26
2018-07-02T01:04:45.162Z,38.49
2018-07-02T01:07:12.848Z,37.96
2018-07-02T01:09:40.589Z,38.42
2018-07-02T01:12:08.323Z,38.61
2018-07-02T01:14:36.039Z,38.37
2018-07-02T01:17:03.806Z,38.09
2018-07-02T01:19:31.506Z,38.12
2018-07-02T01:21:59.226Z,38.21
2018-07-02T01:24:26.930Z,38.53
2018-07-02T01:26:54.603Z,38.54
2018-07-02T01:29:22.335Z,38.45
2018-07-02T01:31:50.043Z,38.00
2018-07-02T01:34:17.752Z,38.06
2018-07-02T01:36:45.487Z,38.54
2018-07-02T01:39:13.246Z,38.50
2018-07-02T01:41:40.917Z,38.42
2018-07-02T01:44:08.614Z,38.50
2018-07-02T01:46:36.330Z,38.40
2018-07-02T01:49:04.031Z,38.57
2018-07-02T01:51:31.787Z,39.08
2018-07-02T01:53:59.506Z,38.71
2018-07-02T01:56:27.212Z,38.88
2018-07-02T01:58:54.897Z,38.99
2018-07-02T02:01:22.861Z,39.58
2018-07-02T02:03:50.538Z,39.29
2018-07-02T02:06:18.262Z,39.45
2018-07-02T02:08:45.962Z,39.86
2018-07-02T02:11:13.633Z,39.72
2018-07-02T02:13:41.319Z,39.83
2018-07-02T02:16:09.026Z,40.39
2018-07-02T02:18:36.747Z,40.28
2018-07-02T02:21:04.481Z,40.14
2018-07-02T02:23:32.218Z,40.48
2018-07-02T02:25:59.922Z,40.80
2018-07-02T02:28:27.641Z,40.76
2018-07-02T02:30:55.355Z,40.82
2018-07-02T02:33:23.056Z,40.79
2018-07-02T02:35:50.715Z,40.79
2018-07-02T02:38:18.468Z,41.29
2018-07-02T02:40:46.079Z,41.58
2018-07-02T02:43:13.759Z,41.29
2018-07-02T02:45:41.695Z,41.27
2018-07-02T02:48:09.383Z,41.28
2018-07-02T02:50:37.069Z,41.50
2018-07-02T02:53:04.775Z,41.67
2018-07-02T02:55:32.483Z,41.50
2018-07-02T02:58:00.166Z,41.28
2018-07-02T03:00:27.891Z,42.00
2018-07-02T03:02:55.622Z,41.89
2018-07-02T03:05:23.311Z,41.90
2018-07-02T03:07:51.108Z,41.11
2018-07-02T03:10:18.822Z,41.34
2018-07-02T03:12:46.486Z,41.41
2018-07-02T03:15:14.462Z,41.31
2018-07-02T03:17:42.127Z,41.19
2018-07-02T03:20:09.812Z,42.00
2018-07-02T03:22:37.511Z,42.14
2018-07-02T03:25:05.194Z,42.15
2018-07-02T03:27:32.925Z,42.24
2018-07-02T03:30:00.651Z,41.93
2018-07-02T03:32:28.362Z,42.81
2018-07-02T03:34:56.065Z,42.94
2018-07-02T03:37:23.878Z,42.54
2018-07-02T03:39:51.542Z,42.66
2018-07-02T03:42:19.209Z,42.71
2018-07-02T03:44:46.884Z,42.54
2018-07-02T03:47:14.582Z,42.82
2018-07-02T03:49:42.289Z,42.82
2018-07-02T03:52:10.041Z,42.77
2018-07-02T03:54:37.686Z,42.53
2018-07-02T03:57:05.412Z,42.40
2018-07-02T03:59:33.286Z,42.41
2018-07-02T04:02:01.000Z,42.22
2018-07-02T04:04:28.710Z,42.86
2018-07-02T04:06:56.438Z,43.42
2018-07-02T04:09:24.130Z,43.29
2018-07-02T04:11:51.805Z,42.86
2018-07-02T04:14:19.530Z,42.39
2018-07-02T04:16:47.235Z,42.44
2018-07-02T04:19:14.943Z,42.72
2018-07-02T04:21:43.452Z,42.40
2018-07-02T04:24:11.279Z,41.17
2018-07-02T04:26:40.495Z,39.89
2018-07-02T04:29:08.479Z,39.66
2018-07-02T04:31:36.166Z,39.77
2018-07-02T04:34:04.075Z,40.22
2018-07-02T04:36:31.911Z,40.00
2018-07-02T04:38:59.585Z,39.34
2018-07-02T04:41:27.314Z,38.94
2018-07-02T04:43:55.026Z,39.22
2018-07-02T04:46:22.763Z,38.56
2018-07-02T04:48:50.509Z,39.15
2018-07-02T04:51:18.222Z,38.70
2018-07-02T04:53:45.967Z,38.43
2018-07-02T04:56:13.678Z,38.97
2018-07-02T04:58:41.492Z,38.19
2018-07-02T05:01:09.592Z,38.02
2018-07-02T05:03:37.395Z,38.18
2018-07-02T05:06:05.230Z,36.98
2018-07-02T05:08:32.952Z,37.14
2018-07-02T05:11:00.620Z,36.88
2018-07-02T05:13:28.314Z,37.04
2018-07-02T05:15:56.027Z,36.47
2018-07-02T05:18:23.757Z,37.11
2018-07-02T05:20:51.921Z,35.18
2018-07-02T05:23:19.613Z,33.46
2018-07-02T05:25:47.304Z,33.54
2018-07-02T05:28:15.005Z,33.39
2018-07-02T05:30:42.785Z,33.82
2018-07-02T05:33:10.451Z,34.19
2018-07-02T05:35:38.129Z,32.87
2018-07-02T05:38:05.801Z,32.80
2018-07-02T05:40:33.498Z,32.66
2018-07-02T05:43:01.503Z,33.25
2018-07-02T05:45:29.194Z,30.62
2018-07-02T05:47:56.926Z,31.66
2018-07-02T05:50:24.627Z,31.01
2018-07-02T05:52:52.312Z,31.31
2018-07-02T05:55:20.039Z,30.23
2018-07-02T05:57:47.837Z,30.89
2018-07-02T06:00:15.580Z,31.81
2018-07-02T06:02:43.263Z,30.63
2018-07-02T06:05:10.959Z,30.59
2018-07-02T06:07:38.662Z,28.84
2018-07-02T06:10:06.466Z,29.70
2018-07-02T06:12:34.165Z,29.20
2018-07-02T06:15:01.834Z,29.96
2018-07-02T06:17:29.586Z,30.26
2018-07-02T06:19:57.294Z,29.86
2018-07-02T06:22:24.971Z,30.67
2018-07-02T06:24:52.766Z,29.01
2018-07-02T06:27:20.442Z,30.24
2018-07-02T06:29:48.169Z,30.60
2018-07-02T06:32:15.862Z,29.13
2018-07-02T06:34:43.557Z,28.07
2018-07-02T06:37:11.274Z,28.71
2018-07-02T06:39:38.944Z,28.13
2018-07-02T06:44:33.986Z,27.24
2018-07-02T06:47:01.708Z,26.30
2018-07-02T06:49:29.410Z,26.49
2018-07-02T06:51:57.094Z,25.56
2018-07-02T06:54:24.801Z,25.32
2018-07-02T06:56:52.493Z,25.20
2018-07-02T06:59:20.451Z,26.12
2018-07-02T07:01:48.704Z,25.59
2018-07-02T07:04:16.347Z,25.54
2018-07-02T07:06:44.058Z,24.37
2018-07-02T07:09:12.045Z,25.11
2018-07-02T07:11:39.851Z,24.41
2018-07-02T07:14:07.959Z,25.05
2018-07-02T07:16:35.932Z,23.42
2018-07-02T07:19:03.622Z,22.89
2018-07-02T07:21:31.430Z,22.81
2018-07-02T07:23:59.423Z,23.42
2018-07-02T07:26:27.094Z,22.86
2018-07-02T07:28:54.826Z,22.41
2018-07-02T07:31:22.791Z,21.16
2018-07-02T07:33:50.537Z,20.91
2018-07-02T07:36:18.858Z,20.76
2018-07-02T07:38:46.569Z,20.16
2018-07-02T07:41:14.299Z,20.68
2018-07-02T07:43:41.994Z,20.21
2018-07-02T07:46:09.743Z,19.91
2018-07-02T07:48:37.419Z,19.66
2018-07-02T07:51:05.178Z,19.71
2018-07-02T07:53:32.908Z,20.12
2018-07-02T07:56:00.730Z,19.84
2018-07-02T07:58:28.978Z,20.41
2018-07-02T08:00:56.699Z,19.60
2018-07-02T08:03:24.374Z,18.81
2018-07-02T08:05:52.131Z,19.08
2018-07-02T08:08:19.827Z,18.22
2018-07-02T08:10:47.498Z,18.89
2018-07-02T08:13:15.198Z,18.56
2018-07-02T08:15:42.859Z,17.29
2018-07-02T08:18:10.543Z,17.54
2018-07-02T08:20:38.251Z,17.58
2018-07-02T08:23:06.079Z,18.00
2018-07-02T08:25:33.758Z,17.63
2018-07-02T08:28:01.447Z,17.07
2018-07-02T08:30:29.165Z,18.04
2018-07-02T08:32:56.921Z,16.81
2018-07-02T08:35:24.658Z,16.86
2018-07-02T08:37:52.394Z,16.30
2018-07-02T08:40:20.083Z,15.30
2018-07-02T08:42:47.811Z,15.23
2018-07-02T08:45:15.470Z,15.42
2018-07-02T08:47:43.180Z,16.20
2018-07-02T08:50:10.901Z,16.87
2018-07-02T08:52:38.647Z,15.87
2018-07-02T08:55:06.331Z,15.45
2018-07-02T08:57:34.018Z,13.99
2018-07-02T09:00:01.732Z,13.95
2018-07-02T09:02:29.447Z,13.63
2018-07-02T09:04:57.136Z,13.69
2018-07-02T09:07:24.854Z,13.40
2018-07-02T09:09:52.555Z,13.80
2018-07-02T09:12:20.281Z,13.54
2018-07-02T09:14:48.064Z,13.25
2018-07-02T09:17:15.694Z,12.80
2018-07-02T09:19:43.463Z,12.91
2018-07-02T09:22:11.154Z,12.69
2018-07-02T09:24:38.844Z,12.22
2018-07-02T09:27:06.589Z,12.87
2018-07-02T09:29:34.286Z,12.80
2018-07-02T09:32:01.988Z,12.83
2018-07-02T09:34:29.695Z,12.80
2018-07-02T09:36:57.422Z,12.11
2018-07-02T09:39:25.167Z,13.59
2018-07-02T09:41:53.180Z,13.05
2018-07-02T09:44:20.901Z,12.49
2018-07-02T09:46:48.595Z,12.53
2018-07-02T09:49:16.275Z,13.36
2018-07-02T09:51:44.081Z,12.76
2018-07-02T09:54:11.637Z,11.56
2018-07-02T09:56:39.343Z,12.51
2018-07-02T09:59:07.030Z,12.78
2018-07-02T10:01:34.720Z,12.67
2018-07-02T10:04:02.455Z,12.44
2018-07-02T10:06:30.178Z,12.53
2018-07-02T10:08:57.871Z,12.10
2018-07-02T10:11:25.757Z,12.33
2018-07-02T10:13:53.708Z,12.20
2018-07-02T10:16:21.401Z,12.28
2018-07-02T10:18:49.187Z,13.14
2018-07-02T10:21:16.911Z,13.87
2018-07-02T10:23:44.980Z,13.17
2018-07-02T10:26:12.628Z,12.30
2018-07-02T10:28:40.306Z,13.67
2018-07-02T10:31:08.067Z,13.41
2018-07-02T10:33:35.771Z,13.59
2018-07-02T10:36:03.534Z,13.03
2018-07-02T10:38:31.248Z,14.17
2018-07-02T10:40:58.926Z,13.61
2018-07-02T10:43:26.674Z,12.55
2018-07-02T10:45:54.346Z,13.00
2018-07-02T10:48:22.064Z,13.15
2018-07-02T10:50:49.750Z,13.28
2018-07-02T10:53:17.523Z,12.56
2018-07-02T10:55:45.221Z,12.62
2018-07-02T10:58:12.940Z,13.58
2018-07-02T11:00:40.655Z,12.60
2018-07-02T11:03:08.353Z,14.04
2018-07-02T11:05:36.024Z,14.13
2018-07-02T11:08:03.708Z,13.69
2018-07-02T11:10:31.454Z,13.79
2018-07-02T11:13:03.707Z,14.62
2018-07-02T11:15:31.423Z,13.72
2018-07-02T11:17:59.137Z,14.41
2018-07-02T11:20:26.823Z,15.14
2018-07-02T11:22:54.622Z,14.45
2018-07-02T11:25:22.333Z,15.48
2018-07-02T11:27:49.998Z,14.66
2018-07-02T11:30:17.947Z,14.96
2018-07-02T11:32:45.657Z,14.88
2018-07-02T11:35:13.324Z,15.83
2018-07-02T11:37:41.034Z,15.21
2018-07-02T11:40:08.750Z,15.27
2018-07-02T11:42:36.434Z,15.33
2018-07-02T11:45:04.874Z,15.93
2018-07-02T11:47:32.582Z,16.37
2018-07-02T11:50:00.304Z,17.36
2018-07-02T11:52:28.082Z,17.25
2018-07-02T11:54:55.785Z,17.31
2018-07-02T11:57:23.481Z,17.92
2018-07-02T11:59:51.198Z,18.54
2018-07-02T12:02:18.911Z,18.60
2018-07-02T12:04:46.590Z,18.63
2018-07-02T12:07:14.274Z,18.75
2018-07-02T12:09:41.978Z,19.95
2018-07-02T12:12:09.693Z,19.47
2018-07-02T12:14:37.370Z,19.98
2018-07-02T12:17:05.075Z,20.03
2018-07-02T12:19:32.762Z,20.48
2018-07-02T12:22:00.435Z,21.16
2018-07-02T12:24:28.136Z,20.52
2018-07-02T12:26:55.854Z,20.90
2018-07-02T12:29:23.547Z,21.44
2018-07-02T12:31:51.291Z,21.25
2018-07-02T12:34:19.127Z,20.80
2018-07-02T12:36:46.830Z,21.21
2018-07-02T12:39:14.507Z,20.82
2018-07-02T12:41:42.788Z,21.21
2018-07-02T12:44:12.298Z,20.84
2018-07-02T12:46:40.053Z,21.04
2018-07-02T12:49:07.714Z,21.91
2018-07-02T12:51:35.470Z,21.85
2018-07-02T12:54:03.239Z,21.39
2018-07-02T12:56:30.887Z,22.39
2018-07-02T12:58:58.609Z,22.53
2018-07-02T13:01:26.323Z,23.23
2018-07-02T13:03:54.051Z,22.14
2018-07-02T13:06:21.748Z,22.33
2018-07-02T13:08:49.467Z,23.01
2018-07-02T13:11:17.175Z,22.26
2018-07-02T13:13:44.903Z,22.34
2018-07-02T13:16:12.619Z,23.05
2018-07-02T13:18:40.322Z,22.95
2018-07-02T13:21:08.040Z,22.93
2018-07-02T13:23:35.759Z,22.38
2018-07-02T13:26:03.647Z,23.70
2018-07-02T13:28:31.454Z,24.87
2018-07-02T13:30:59.397Z,23.75
2018-07-02T13:33:27.091Z,23.02
2018-07-02T13:35:54.786Z,23.77
2018-07-02T13:38:22.616Z,23.70
2018-07-02T13:40:50.311Z,23.50
2018-07-02T13:43:18.118Z,23.52
2018-07-02T13:45:46.034Z,24.47
2018-07-02T13:48:13.716Z,24.20
2018-07-02T13:50:41.438Z,24.24
2018-07-02T13:53:09.147Z,24.63
2018-07-02T13:55:36.835Z,24.15
2018-07-02T13:58:04.899Z,24.32
2018-07-02T14:00:32.630Z,24.87
2018-07-02T14:03:00.440Z,24.49
2018-07-02T14:05:28.133Z,24.84
2018-07-02T14:07:55.833Z,24.80
2018-07-02T14:10:23.582Z,25.20
2018-07-02T14:12:51.489Z,24.84
2018-07-02T14:15:19.191Z,25.50
2018-07-02T14:17:46.887Z,24.80
2018-07-02T14:20:14.582Z,25.80
2018-07-02T14:22:42.305Z,25.47
2018-07-02T14:25:10.030Z,25.68
2018-07-02T14:27:37.723Z,24.98
2018-07-02T14:30:05.745Z,25.66
2018-07-02T14:32:33.450Z,26.56
2018-07-02T14:35:01.152Z,26.07
2018-07-02T14:37:28.861Z,25.72
2018-07-02T14:39:56.564Z,26.20
2018-07-02T14:42:24.285Z,26.60
2018-07-02T14:44:52.155Z,25.74
2018-07-02T14:47:19.701Z,25.67
2018-07-02T14:49:48.339Z,26.07
2018-07-02T14:52:16.036Z,27.41
2018-07-02T14:54:43.729Z,26.37
2018-07-02T14:57:11.443Z,26.80
2018-07-02T14:59:39.151Z,26.78
2018-07-02T15:02:06.861Z,27.08
2018-07-02T15:04:34.546Z,26.18
2018-07-02T15:07:02.281Z,26.88
2018-07-02T15:09:30.002Z,27.06
2018-07-02T15:11:57.683Z,26.34
2018-07-02T15:14:25.419Z,26.24
2018-07-02T15:16:53.091Z,26.92
2018-07-02T15:19:20.919Z,26.85
2018-07-02T15:21:48.640Z,27.25
2018-07-02T15:24:16.358Z,26.63
2018-07-02T15:26:44.065Z,27.17
2018-07-02T15:29:11.849Z,27.54
2018-07-02T15:31:39.565Z,26.78
2018-07-02T15:34:07.351Z,27.07
2018-07-02T15:36:35.067Z,27.46
2018-07-02T15:39:04.472Z,27.25
2018-07-02T15:41:32.206Z,27.68
2018-07-02T15:43:59.939Z,28.22
2018-07-02T15:46:27.823Z,27.54
2018-07-02T15:48:55.498Z,27.52
2018-07-02T15:51:23.185Z,28.52
2018-07-02T15:53:50.854Z,27.96
2018-07-02T15:56:18.574Z,27.63
2018-07-02T15:58:46.238Z,28.49
2018-07-02T16:01:13.972Z,28.28
2018-07-02T16:03:41.807Z,28.40
2018-07-02T16:06:09.444Z,27.93
2018-07-02T16:08:37.117Z,27.94
2018-07-02T16:11:05.199Z,28.96
2018-07-02T16:13:32.918Z,28.07
2018-07-02T16:16:00.671Z,28.34
2018-07-02T16:18:28.410Z,28.51
2018-07-02T16:20:56.104Z,28.52
2018-07-02T16:23:23.999Z,28.18
2018-07-02T16:25:51.692Z,28.92
2018-07-02T16:28:19.405Z,28.31
2018-07-02T16:30:47.147Z,28.31
2018-07-02T16:33:14.890Z,28.03
2018-07-02T16:35:42.576Z,29.45
2018-07-02T16:38:10.287Z,28.06
2018-07-02T16:40:38.015Z,28.20
2018-07-02T16:43:05.749Z,28.14
2018-07-02T16:45:33.495Z,29.04
2018-07-02T16:48:01.675Z,28.21
2018-07-02T16:50:29.391Z,28.83
2018-07-02T16:52:57.115Z,28.38
2018-07-02T16:55:24.951Z,28.78
2018-07-02T16:57:52.709Z,28.79
2018-07-02T17:00:20.781Z,28.77
2018-07-02T17:02:48.512Z,29.02
2018-07-02T17:05:16.243Z,28.70
2018-07-02T17:07:43.999Z,29.34
2018-07-02T17:10:11.719Z,28.53
2018-07-02T17:12:39.393Z,29.48
2018-07-02T17:15:07.151Z,28.99
2018-07-02T17:17:34.887Z,29.21
2018-07-02T17:20:02.683Z,29.61
2018-07-02T17:22:30.446Z,29.18
2018-07-02T17:24:58.135Z,29.06
2018-07-02T17:27:25.833Z,29.20
2018-07-02T17:29:53.595Z,29.03
2018-07-02T17:32:21.290Z,29.39
2018-07-02T17:34:49.005Z,30.06
2018-07-02T17:37:16.718Z,30.09
2018-07-02T17:39:44.459Z,30.31
2018-07-02T17:42:12.199Z,29.91
2018-07-02T17:44:39.866Z,29.88
2018-07-02T17:47:07.586Z,30.49
2018-07-02T17:49:35.319Z,30.03
2018-07-02T17:52:03.034Z,30.04
2018-07-02T17:54:30.734Z,31.04
2018-07-02T17:56:58.491Z,30.92
2018-07-02T17:59:26.173Z,30.85
2018-07-02T18:01:53.934Z,31.11
2018-07-02T18:04:21.647Z,30.87
2018-07-02T18:06:49.358Z,30.61
2018-07-02T18:09:17.102Z,31.19
2018-07-02T18:11:44.826Z,31.22
2018-07-02T18:14:12.564Z,31.14
2018-07-02T18:16:40.275Z,31.57
2018-07-02T18:19:07.959Z,31.74
2018-07-02T18:21:35.747Z,31.57
2018-07-02T18:24:03.515Z,32.01
2018-07-02T18:26:31.254Z,31.43
2018-07-02T18:28:58.948Z,31.05
2018-07-02T18:31:26.691Z,31.42
2018-07-02T18:33:54.403Z,32.05
2018-07-02T18:36:22.112Z,32.11
2018-07-02T18:38:49.810Z,32.16
2018-07-02T18:41:17.564Z,32.90
2018-07-02T18:43:45.342Z,33.15
2018-07-02T18:46:13.047Z,32.70
2018-07-02T18:48:40.875Z,33.04
2018-07-02T18:51:08.631Z,32.94
2018-07-02T18:53:36.346Z,33.17
2018-07-02T18:56:04.126Z,33.23
2018-07-02T18:58:32.284Z,33.54
2018-07-02T19:01:00.110Z,33.82
2018-07-02T19:03:27.810Z,33.69
2018-07-02T19:05:55.637Z,33.44
2018-07-02T19:08:23.881Z,34.14
2018-07-02T19:10:51.606Z,33.91
2018-07-02T19:13:19.344Z,33.64
2018-07-02T19:15:47.082Z,33.85
2018-07-02T19:18:14.786Z,34.29
2018-07-02T19:20:42.535Z,34.33
2018-07-02T19:23:10.239Z,34.14
2018-07-02T19:25:37.959Z,34.39
2018-07-02T19:28:05.698Z,35.04
2018-07-02T19:30:33.446Z,34.64
2018-07-02T19:33:02.010Z,34.76
2018-07-02T19:35:29.766Z,35.39
2018-07-02T19:37:58.174Z,35.38
2018-07-02T19:40:25.941Z,35.46
2018-07-02T19:42:53.655Z,35.89
2018-07-02T19:45:22.682Z,35.89
2018-07-02T19:47:51.361Z,36.04
2018-07-02T19:50:19.046Z,36.03
2018-07-02T19:52:46.797Z,36.63
2018-07-02T19:55:14.514Z,36.74
2018-07-02T19:57:42.250Z,37.40
2018-07-02T20:00:09.971Z,37.71
2018-07-02T20:02:37.707Z,37.54
2018-07-02T20:05:05.538Z,37.28
2018-07-02T20:07:33.255Z,37.80
2018-07-02T20:10:00.943Z,38.42
2018-07-02T20:12:28.650Z,38.59
2018-07-02T20:14:56.403Z,38.77
2018-07-02T20:17:24.098Z,39.50
2018-07-02T20:19:51.794Z,39.71
2018-07-02T20:22:19.567Z,40.04
2018-07-02T20:24:47.345Z,39.73
2018-07-02T20:27:15.041Z,39.89
2018-07-02T20:29:42.757Z,39.85
2018-07-02T20:32:10.439Z,39.78
2018-07-02T20:34:38.142Z,39.54
2018-07-02T20:37:05.933Z,39.91
2018-07-02T20:39:33.638Z,39.80
2018-07-02T20:42:01.379Z,39.51
2018-07-02T20:44:29.090Z,40.23
2018-07-02T20:46:56.810Z,39.55
2018-07-02T20:49:24.573Z,39.63
2018-07-02T20:51:52.774Z,39.72
2018-07-02T20:54:20.459Z,39.92
2018-07-02T20:56:48.214Z,40.22
2018-07-02T20:59:15.925Z,39.68
2018-07-02T21:01:43.618Z,39.74
2018-07-02T21:04:11.345Z,39.90
2018-07-02T21:06:39.065Z,40.33
2018-07-02T21:09:07.531Z,40.51
2018-07-02T21:11:35.258Z,40.06
2018-07-02T21:14:03.294Z,40.40
2018-07-02T21:16:30.993Z,40.12
2018-07-02T21:18:58.727Z,40.52
2018-07-02T21:21:26.446Z,40.14
2018-07-02T21:23:54.128Z,39.87
2018-07-02T21:26:21.831Z,39.84
2018-07-02T21:28:49.566Z,39.95
2018-07-02T21:31:17.286Z,40.40
2018-07-02T21:33:44.962Z,39.83
2018-07-02T21:36:12.677Z,39.96
2018-07-02T21:38:40.363Z,39.98
2018-07-02T21:41:08.088Z,40.22
2018-07-02T21:43:35.761Z,40.25
2018-07-02T21:46:03.463Z,39.71
2018-07-02T21:48:31.207Z,40.29
2018-07-02T21:50:58.928Z,40.17
2018-07-02T21:53:26.702Z,40.41
2018-07-02T21:55:54.359Z,40.60
2018-07-02T21:58:22.035Z,40.23
2018-07-02T22:00:49.755Z,40.42
2018-07-02T22:03:17.485Z,40.58
2018-07-02T22:05:45.214Z,40.80
2018-07-02T22:08:12.935Z,41.03
2018-07-02T22:10:40.775Z,41.08
2018-07-02T22:13:08.539Z,40.79
2018-07-02T22:15:36.315Z,40.72
2018-07-02T22:18:04.110Z,41.03
2018-07-02T22:20:31.942Z,40.96
2018-07-02T22:22:59.651Z,40.52
2018-07-02T22:25:27.402Z,40.99
2018-07-02T22:27:55.274Z,40.34
2018-07-02T22:30:22.947Z,40.80
2018-07-02T22:32:50.670Z,40.53
2018-07-02T22:35:18.371Z,40.94
2018-07-02T22:37:46.094Z,40.59
2018-07-02T22:40:13.833Z,41.08
2018-07-02T22:42:41.512Z,41.38
2018-07-02T22:45:09.198Z,41.02
2018-07-02T22:47:36.877Z,41.05
2018-07-02T22:50:04.615Z,41.04
2018-07-02T22:52:32.378Z,41.79
2018-07-02T22:55:00.063Z,41.33
2018-07-02T22:57:27.775Z,41.28
2018-07-02T22:59:55.441Z,41.04
2018-07-02T23:02:23.135Z,41.15
2018-07-02T23:04:50.798Z,41.36
2018-07-02T23:07:18.486Z,41.08
2018-07-02T23:09:46.163Z,40.79
2018-07-02T23:12:13.850Z,41.46
2018-07-02T23:14:41.519Z,41.09
2018-07-02T23:17:09.202Z,40.73
2018-07-02T23:19:36.882Z,40.79
2018-07-02T23:22:04.591Z,41.77
2018-07-02T23:24:32.318Z,41.57
2018-07-02T23:27:00.044Z,41.06
2018-07-02T23:29:27.758Z,41.14
2018-07-02T23:31:55.458Z,41.12
2018-07-02T23:34:23.170Z,41.22
2018-07-02T23:36:50.878Z,40.90
2018-07-02T23:39:18.602Z,40.89
2018-07-02T23:41:46.292Z,40.83
2018-07-02T23:44:14.011Z,41.47
2018-07-02T23:46:42.091Z,41.37
2018-07-02T23:49:09.774Z,41.87
2018-07-02T23:51:37.425Z,41.50
2018-07-02T23:54:05.217Z,41.94
2018-07-02T23:56:33.857Z,41.32
2018-07-02T23:59:01.510Z,41.35
